createdAt,value
2023-05-02T00:00:38.064Z,770.3077
2023-05-02T00:01:39.165Z,818.6154
2023-05-02T00:02:40.468Z,645.9231
2023-05-02T00:03:41.437Z,475.6923
2023-05-02T00:04:42.658Z,564.3077
2023-05-02T00:05:43.547Z,669.0000
2023-05-02T00:06:44.691Z,750.2308
2023-05-02T00:07:45.747Z,805.4615
2023-05-02T00:08:46.884Z,729.7692
2023-05-02T00:09:47.979Z,523.9231
2023-05-02T00:10:49.057Z,582.4615
2023-05-02T00:11:50.162Z,686.0000
2023-05-02T00:12:51.266Z,762.8461
2023-05-02T00:13:52.409Z,820.5385
2023-05-02T00:14:53.455Z,782.4615
2023-05-02T00:15:54.542Z,510.0769
2023-05-02T00:16:55.678Z,470.6154
2023-05-02T00:17:56.827Z,589.6923
2023-05-02T00:18:58.064Z,687.6154
2023-05-02T00:19:59.109Z,762.3846
2023-05-02T00:21:00.036Z,810.3846
2023-05-02T00:22:01.167Z,617.6154
2023-05-02T00:23:02.229Z,432.8462
2023-05-02T00:24:03.341Z,523.1539
2023-05-02T00:25:04.430Z,634.5385
2023-05-02T00:26:05.529Z,725.5385
2023-05-02T00:27:06.651Z,788.3846
2023-05-02T00:28:07.752Z,720.0000
2023-05-02T00:29:08.872Z,449.8462
2023-05-02T00:30:09.966Z,436.0000
2023-05-02T00:31:11.063Z,557.3846
2023-05-02T00:32:12.166Z,666.0000
2023-05-02T00:33:13.440Z,747.3846
2023-05-02T00:34:14.425Z,787.6154
2023-05-02T00:35:15.528Z,586.9231
2023-05-02T00:36:16.611Z,447.7692
2023-05-02T00:37:17.720Z,549.3846
2023-05-02T00:38:18.880Z,656.9231
2023-05-02T00:39:19.924Z,735.1539
2023-05-02T00:40:20.996Z,793.0769
2023-05-02T00:41:22.125Z,692.6923
2023-05-02T00:42:23.276Z,588.9231
2023-05-02T00:43:24.314Z,668.6154
2023-05-02T00:44:25.400Z,743.0000
2023-05-02T00:45:26.548Z,802.8461
2023-05-02T00:46:27.671Z,844.0000
2023-05-02T00:47:28.785Z,696.1539
2023-05-02T00:48:29.782Z,429.8462
2023-05-02T00:49:30.911Z,418.6923
2023-05-02T00:50:31.974Z,536.1539
2023-05-02T00:51:33.079Z,644.3846
2023-05-02T00:52:34.187Z,728.9231
2023-05-02T00:53:35.279Z,775.6154
2023-05-02T00:54:36.430Z,607.7692
2023-05-02T00:55:37.478Z,562.3077
2023-05-02T00:56:38.589Z,660.2308
2023-05-02T00:57:39.655Z,739.4615
2023-05-02T00:58:40.745Z,807.5385
2023-05-02T00:59:41.858Z,829.1539
2023-05-02T01:00:42.925Z,616.6923
2023-05-02T01:01:44.075Z,405.4615
2023-05-02T01:02:45.230Z,422.6154
2023-05-02T01:03:46.337Z,553.0000
2023-05-02T01:04:47.323Z,663.0000
2023-05-02T01:05:48.399Z,742.8461
2023-05-02T01:06:49.622Z,764.6154
2023-05-02T01:07:50.619Z,586.9231
2023-05-02T01:08:51.718Z,603.9231
2023-05-02T01:09:52.834Z,691.0000
2023-05-02T01:10:53.928Z,764.0000
2023-05-02T01:11:55.013Z,817.6154
2023-05-02T01:12:56.090Z,814.6154
2023-05-02T01:13:57.207Z,539.0769
2023-05-02T01:14:58.308Z,405.5385
2023-05-02T01:15:59.411Z,502.8462
2023-05-02T01:17:00.605Z,627.0000
2023-05-02T01:18:01.675Z,717.1539
2023-05-02T01:19:02.695Z,783.1539
2023-05-02T01:20:03.871Z,706.6923
2023-05-02T01:21:04.890Z,448.9231
2023-05-02T01:22:06.013Z,471.1538
2023-05-02T01:23:07.064Z,585.3846
2023-05-02T01:24:08.176Z,688.5385
2023-05-02T01:25:09.311Z,759.0769
2023-05-02T01:26:10.377Z,778.0769
2023-05-02T01:27:11.518Z,538.1539
2023-05-02T01:28:12.572Z,468.7692
2023-05-02T01:29:13.797Z,579.4615
2023-05-02T01:30:14.787Z,680.0769
2023-05-02T01:31:15.898Z,756.3077
2023-05-02T01:32:17.003Z,807.0000
2023-05-02T01:33:18.097Z,633.9231
2023-05-02T01:34:19.149Z,410.6923
2023-05-02T01:35:20.286Z,443.9231
2023-05-02T01:36:21.348Z,563.1539
2023-05-02T01:37:22.462Z,668.6154
2023-05-02T01:38:23.552Z,750.3846
2023-05-02T01:39:24.650Z,757.6923
2023-05-02T01:40:25.767Z,518.8461
2023-05-02T01:41:26.830Z,469.3077
2023-05-02T01:42:27.940Z,583.3077
2023-05-02T01:43:29.080Z,684.3846
2023-05-02T01:44:30.147Z,756.7692
2023-05-02T01:45:31.268Z,807.5385
2023-05-02T01:46:32.413Z,624.0769
2023-05-02T01:47:33.484Z,424.0769
2023-05-02T01:48:34.579Z,508.6154
2023-05-02T01:49:35.646Z,624.3077
2023-05-02T01:50:36.941Z,716.2308
2023-05-02T01:51:37.854Z,784.2308
2023-05-02T01:52:38.960Z,740.1539
2023-05-02T01:53:40.095Z,473.1538
2023-05-02T01:54:41.239Z,464.8462
2023-05-02T01:55:42.314Z,582.4615
2023-05-02T01:56:43.378Z,683.2308
2023-05-02T01:57:44.483Z,758.0000
2023-05-02T01:58:45.565Z,790.4615
2023-05-02T01:59:46.669Z,574.0000
2023-05-02T02:00:47.800Z,445.9231
2023-05-02T02:01:48.853Z,546.3077
2023-05-02T02:02:50.052Z,651.6923
2023-05-02T02:03:51.084Z,737.0000
2023-05-02T02:04:52.220Z,787.7692
2023-05-02T02:05:53.516Z,684.7692
2023-05-02T02:06:54.402Z,513.6923
2023-05-02T02:07:55.483Z,588.6923
2023-05-02T02:08:56.582Z,683.6923
2023-05-02T02:09:57.811Z,755.7692
2023-05-02T02:10:58.780Z,807.3846
2023-05-02T02:11:59.917Z,736.2308
2023-05-02T02:13:00.955Z,479.2308
2023-05-02T02:14:02.057Z,492.1538
2023-05-02T02:15:03.185Z,608.5385
2023-05-02T02:16:04.268Z,704.0000
2023-05-02T02:17:05.377Z,772.5385
2023-05-02T02:18:06.498Z,789.0000
2023-05-02T02:19:07.578Z,554.6154
2023-05-02T02:20:08.674Z,429.9231
2023-05-02T02:21:09.780Z,537.1539
2023-05-02T02:22:10.886Z,646.8461
2023-05-02T02:23:11.981Z,731.6923
2023-05-02T02:24:13.045Z,793.2308
2023-05-02T02:25:14.156Z,678.4615
2023-05-02T02:26:15.278Z,529.8461
2023-05-02T02:27:16.376Z,612.4615
2023-05-02T02:28:17.484Z,703.1539
2023-05-02T02:29:18.576Z,770.3846
2023-05-02T02:30:19.759Z,817.8461
2023-05-02T02:31:20.869Z,714.9231
2023-05-02T02:32:21.865Z,445.7692
2023-05-02T02:33:22.971Z,456.9231
2023-05-02T02:34:24.109Z,580.8461
2023-05-02T02:35:25.168Z,681.4615
2023-05-02T02:36:26.276Z,761.6923
2023-05-02T02:37:27.407Z,790.0000
2023-05-02T02:38:29.112Z,567.6923
2023-05-02T02:39:29.597Z,484.4615
2023-05-02T02:40:30.759Z,590.7692
2023-05-02T02:41:31.804Z,687.0769
2023-05-02T02:42:32.904Z,761.9231
2023-05-02T02:43:34.050Z,811.3846
2023-05-02T02:44:35.094Z,653.8461
2023-05-02T02:45:36.185Z,524.8461
2023-05-02T02:46:37.353Z,615.1539
2023-05-02T02:47:38.443Z,704.3846
2023-05-02T02:48:39.518Z,772.9231
2023-05-02T02:49:40.618Z,819.3077
2023-05-02T02:50:41.738Z,689.8461
2023-05-02T02:51:42.825Z,435.1538
2023-05-02T02:52:43.919Z,475.5385
2023-05-02T02:53:45.001Z,594.9231
2023-05-02T02:54:46.095Z,693.0000
2023-05-02T02:55:47.213Z,766.0769
2023-05-02T02:56:48.317Z,773.7692
2023-05-02T02:57:49.395Z,523.4615
2023-05-02T02:58:50.509Z,408.7692
2023-05-02T02:59:51.595Z,508.3846
2023-05-02T03:00:52.696Z,622.5385
2023-05-02T03:01:53.862Z,714.0769
2023-05-02T03:02:54.939Z,780.5385
2023-05-02T03:03:55.992Z,679.9231
2023-05-02T03:04:57.078Z,451.4615
2023-05-02T03:05:58.194Z,510.0769
2023-05-02T03:06:59.305Z,618.9231
2023-05-02T03:08:00.389Z,709.0769
2023-05-02T03:09:01.487Z,781.2308
2023-05-02T03:10:02.874Z,766.6923
2023-05-02T03:11:03.689Z,497.8462
2023-05-02T03:12:04.811Z,408.3846
2023-05-02T03:13:05.909Z,516.0769
2023-05-02T03:14:06.994Z,634.2308
2023-05-02T03:15:08.115Z,716.4615
2023-05-02T03:16:09.224Z,783.4615
2023-05-02T03:17:10.315Z,655.9231
2023-05-02T03:18:11.449Z,436.8462
2023-05-02T03:19:12.500Z,497.7692
2023-05-02T03:20:13.615Z,607.3846
2023-05-02T03:21:14.736Z,703.6154
2023-05-02T03:22:15.820Z,773.1539
2023-05-02T03:23:16.905Z,753.5385
2023-05-02T03:24:19.387Z,593.1539
2023-05-02T03:25:19.098Z,647.3077
2023-05-02T03:26:20.203Z,729.1539
2023-05-02T03:27:21.307Z,790.0769
2023-05-02T03:28:22.422Z,835.3077
2023-05-02T03:29:23.515Z,780.0769
2023-05-02T03:30:24.611Z,483.0769
2023-05-02T03:31:26.836Z,400.0000
2023-05-02T03:32:26.848Z,463.4615
2023-05-02T03:33:27.946Z,595.3077
2023-05-02T03:34:29.018Z,697.3077
2023-05-02T03:35:30.135Z,766.3846
2023-05-02T03:36:31.247Z,690.3077
2023-05-02T03:37:32.353Z,451.9231
2023-05-02T03:38:33.447Z,493.5385
2023-05-02T03:39:34.537Z,607.3077
2023-05-02T03:40:35.655Z,704.2308
2023-05-02T03:41:36.761Z,771.9231
2023-05-02T03:42:37.910Z,779.7692
2023-05-02T03:43:38.964Z,536.6923
2023-05-02T03:44:40.072Z,513.7692
2023-05-02T03:45:41.237Z,617.5385
2023-05-02T03:46:42.293Z,714.0769
2023-05-02T03:47:43.448Z,780.0000
2023-05-02T03:48:44.465Z,813.0000
2023-05-02T03:49:45.620Z,599.5385
2023-05-02T03:50:46.680Z,401.4615
2023-05-02T03:51:47.772Z,444.6154
2023-05-02T03:52:48.950Z,574.7692
2023-05-02T03:53:50.078Z,671.1539
2023-05-02T03:54:51.093Z,753.5385
2023-05-02T03:55:52.200Z,755.1539
2023-05-02T03:56:53.375Z,492.0769
2023-05-02T03:57:54.420Z,435.0000
2023-05-02T03:58:55.563Z,549.0000
2023-05-02T03:59:56.638Z,656.3077
2023-05-02T04:00:57.696Z,735.4615
2023-05-02T04:01:58.881Z,791.6154
2023-05-02T04:02:59.999Z,625.3077
2023-05-02T04:04:01.055Z,412.0000
2023-05-02T04:05:02.089Z,475.4615
2023-05-02T04:06:03.240Z,601.7692
2023-05-02T04:07:04.285Z,698.9231
2023-05-02T04:08:05.418Z,768.8461
2023-05-02T04:09:06.500Z,757.6923
2023-05-02T04:10:07.621Z,488.2308
2023-05-02T04:11:08.682Z,401.1538
2023-05-02T04:12:09.804Z,481.3077
2023-05-02T04:13:10.891Z,605.8461
2023-05-02T04:14:11.976Z,698.7692
2023-05-02T04:15:13.090Z,768.8461
2023-05-02T04:16:14.227Z,671.1539
2023-05-02T04:17:15.388Z,523.3077
2023-05-02T04:18:16.518Z,602.4615
2023-05-02T04:19:17.499Z,689.0769
2023-05-02T04:20:18.596Z,759.1539
2023-05-02T04:21:19.689Z,813.5385
2023-05-02T04:22:20.806Z,720.1539
2023-05-02T04:23:21.884Z,456.2308
2023-05-02T04:24:22.994Z,471.6923
2023-05-02T04:25:24.139Z,591.0000
2023-05-02T04:26:25.182Z,690.6923
2023-05-02T04:27:26.255Z,767.9231
2023-05-02T04:28:27.367Z,796.2308
2023-05-02T04:29:28.437Z,567.3077
2023-05-02T04:30:29.553Z,484.5385
2023-05-02T04:31:30.733Z,594.0769
2023-05-02T04:32:31.768Z,691.3846
2023-05-02T04:33:32.920Z,766.2308
2023-05-02T04:34:33.967Z,811.6923
2023-05-02T04:35:35.057Z,652.9231
2023-05-02T04:36:36.156Z,418.7692
2023-05-02T04:37:38.046Z,468.5385
2023-05-02T04:38:38.490Z,584.7692
2023-05-02T04:39:39.430Z,686.7692
2023-05-02T04:40:40.510Z,763.1539
2023-05-02T04:41:41.628Z,773.0769
2023-05-02T04:42:42.706Z,515.6154
2023-05-02T04:43:43.795Z,422.9231
2023-05-02T04:44:44.869Z,537.3077
2023-05-02T04:45:45.975Z,651.0000
2023-05-02T04:46:47.167Z,733.0769
2023-05-02T04:47:48.157Z,796.8461
2023-05-02T04:48:49.245Z,655.7692
2023-05-02T04:49:50.312Z,498.0769
2023-05-02T04:50:51.422Z,583.4615
2023-05-02T04:51:52.502Z,680.0000
2023-05-02T04:52:53.638Z,753.6154
2023-05-02T04:53:54.711Z,806.2308
2023-05-02T04:54:55.804Z,721.6923
2023-05-02T04:55:56.856Z,511.9231
2023-05-02T04:56:57.952Z,568.2308
2023-05-02T04:57:59.068Z,670.1539
2023-05-02T04:59:00.197Z,748.5385
2023-05-02T05:00:01.451Z,809.9231
2023-05-02T05:01:02.391Z,772.5385
2023-05-02T05:02:03.496Z,489.9231
2023-05-02T05:03:04.580Z,434.0000
2023-05-02T05:04:05.737Z,553.9231
2023-05-02T05:05:06.940Z,660.0000
2023-05-02T05:06:07.955Z,743.5385
2023-05-02T05:07:08.888Z,799.9231
2023-05-02T05:08:10.048Z,636.8461
2023-05-02T05:09:11.087Z,410.0769
2023-05-02T05:10:12.168Z,471.6923
2023-05-02T05:11:13.267Z,591.4615
2023-05-02T05:12:14.361Z,687.9231
2023-05-02T05:13:15.428Z,764.3077
2023-05-02T05:14:16.512Z,757.1539
2023-05-02T05:15:17.607Z,495.2308
2023-05-02T05:16:18.919Z,415.1538
2023-05-02T05:17:19.802Z,525.1539
2023-05-02T05:18:20.882Z,640.9231
2023-05-02T05:19:21.998Z,727.8461
2023-05-02T05:20:23.096Z,788.2308
2023-05-02T05:21:24.162Z,479.1538
2023-05-02T05:22:25.246Z,401.6154
2023-05-02T05:23:26.349Z,400.0000
2023-05-02T05:24:27.465Z,400.0000
2023-05-02T05:25:28.535Z,400.0000
2023-05-02T05:26:29.616Z,400.0000
2023-05-02T05:27:30.698Z,400.0000
2023-05-02T05:28:31.806Z,425.2308
2023-05-02T05:29:32.932Z,526.1539
2023-05-02T05:30:33.984Z,544.5385
2023-05-02T05:31:35.083Z,452.7692
2023-05-02T05:32:36.211Z,523.3846
2023-05-02T05:33:37.269Z,607.6923
2023-05-02T05:34:38.309Z,673.3846
2023-05-02T05:35:39.404Z,730.4615
2023-05-02T05:36:40.497Z,632.4615
2023-05-02T05:37:41.599Z,410.6923
2023-05-02T05:38:42.663Z,408.2308
2023-05-02T05:39:43.759Z,496.7692
2023-05-02T05:40:44.830Z,585.7692
2023-05-02T05:41:45.926Z,665.6154
2023-05-02T05:42:47.027Z,685.4615
2023-05-02T05:43:48.117Z,468.1538
2023-05-02T05:44:49.227Z,411.7692
2023-05-02T05:45:50.328Z,501.7692
2023-05-02T05:46:51.429Z,589.1539
2023-05-02T05:47:52.511Z,663.6154
2023-05-02T05:48:53.573Z,706.8461
2023-05-02T05:49:54.669Z,517.5385
2023-05-02T05:50:55.737Z,400.0000
2023-05-02T05:51:56.818Z,431.4615
2023-05-02T05:52:57.896Z,533.6154
2023-05-02T05:53:58.998Z,616.2308
2023-05-02T05:55:00.119Z,684.8461
2023-05-02T05:56:01.189Z,613.0000
2023-05-02T05:57:02.267Z,408.0769
2023-05-02T05:58:03.355Z,400.0000
2023-05-02T05:59:04.470Z,457.4615
2023-05-02T06:00:05.530Z,557.6154
2023-05-02T06:01:06.611Z,640.4615
2023-05-02T06:02:07.762Z,680.0769
2023-05-02T06:03:09.892Z,481.7692
2023-05-02T06:04:10.040Z,400.0000
2023-05-02T06:05:11.031Z,400.0000
2023-05-02T06:06:12.113Z,461.7692
2023-05-02T06:07:13.152Z,565.2308
2023-05-02T06:08:14.300Z,646.3077
2023-05-02T06:09:15.347Z,640.1539
2023-05-02T06:10:16.466Z,420.7692
2023-05-02T06:11:17.494Z,400.0000
2023-05-02T06:12:18.611Z,402.9231
2023-05-02T06:13:19.715Z,476.6154
2023-05-02T06:14:20.816Z,575.4615
2023-05-02T06:15:21.864Z,653.6923
2023-05-02T06:16:22.975Z,568.6923
2023-05-02T06:17:24.151Z,401.3077
2023-05-02T06:18:25.143Z,400.0000
2023-05-02T06:19:26.249Z,434.6154
2023-05-02T06:20:27.341Z,533.2308
2023-05-02T06:21:28.422Z,616.6923
2023-05-02T06:22:29.535Z,669.2308
2023-05-02T06:23:30.596Z,478.1538
2023-05-02T06:24:31.708Z,400.0000
2023-05-02T06:25:32.811Z,441.4615
2023-05-02T06:26:33.889Z,542.7692
2023-05-02T06:27:34.982Z,626.8461
2023-05-02T06:28:36.087Z,686.4615
2023-05-02T06:29:37.154Z,576.6154
2023-05-02T06:30:38.260Z,437.1538
2023-05-02T06:31:39.352Z,504.2308
2023-05-02T06:32:40.479Z,591.4615
2023-05-02T06:33:41.510Z,667.9231
2023-05-02T06:34:42.611Z,720.3846
2023-05-02T06:35:43.718Z,630.3846
2023-05-02T06:36:44.784Z,411.0769
2023-05-02T06:37:45.875Z,400.0000
2023-05-02T06:38:46.972Z,427.3077
2023-05-02T06:39:48.080Z,535.3846
2023-05-02T06:40:49.155Z,627.6154
2023-05-02T06:41:50.256Z,689.8461
2023-05-02T06:42:51.368Z,547.2308
2023-05-02T06:43:52.466Z,400.0000
2023-05-02T06:44:53.526Z,400.0000
2023-05-02T06:45:54.629Z,448.0769
2023-05-02T06:46:55.807Z,558.9231
2023-05-02T06:47:56.842Z,637.9231
2023-05-02T06:48:57.882Z,672.1539
2023-05-02T06:49:59.217Z,467.6923
2023-05-02T06:51:00.097Z,401.9231
2023-05-02T06:52:01.180Z,474.5385
2023-05-02T06:53:02.290Z,578.1539
2023-05-02T06:54:03.369Z,653.8461
2023-05-02T06:55:04.445Z,708.8461
2023-05-02T06:56:05.569Z,563.1539
2023-05-02T06:57:06.634Z,400.0000
2023-05-02T06:58:07.719Z,421.6923
2023-05-02T06:59:08.824Z,523.1539
2023-05-02T07:00:09.892Z,619.4615
2023-05-02T07:01:11.040Z,688.8461
2023-05-02T07:02:12.077Z,670.1539
2023-05-02T07:03:13.307Z,440.6154
2023-05-02T07:04:14.293Z,419.5385
2023-05-02T07:05:15.346Z,516.8461
2023-05-02T07:06:16.435Z,603.2308
2023-05-02T07:07:17.517Z,684.3077
2023-05-02T07:08:18.626Z,715.5385
2023-05-02T07:09:19.721Z,518.3846
2023-05-02T07:10:20.838Z,417.5385
2023-05-02T07:11:21.924Z,510.0769
2023-05-02T07:12:22.992Z,609.1539
2023-05-02T07:13:24.062Z,680.0769
2023-05-02T07:14:25.165Z,729.3846
2023-05-02T07:15:26.724Z,588.6154
2023-05-02T07:16:27.375Z,403.4615
2023-05-02T07:17:28.471Z,434.9231
2023-05-02T07:18:29.532Z,540.5385
2023-05-02T07:19:30.605Z,629.5385
2023-05-02T07:20:31.702Z,702.3846
2023-05-02T07:21:32.859Z,510.8462
2023-05-02T07:22:33.888Z,400.0000
2023-05-02T07:23:34.975Z,400.0000
2023-05-02T07:24:36.064Z,400.0000
2023-05-02T07:25:37.195Z,400.0000
2023-05-02T07:26:38.257Z,400.0000
2023-05-02T07:27:39.362Z,400.0000
2023-05-02T07:28:40.452Z,400.0000
2023-05-02T07:29:41.519Z,400.0000
2023-05-02T07:30:42.613Z,400.0000
2023-05-02T07:31:43.745Z,400.0000
2023-05-02T07:32:44.837Z,400.0000
2023-05-02T07:33:45.897Z,400.0000
2023-05-02T07:34:46.987Z,400.0000
2023-05-02T07:35:48.084Z,400.0000
2023-05-02T07:36:49.174Z,400.0000
2023-05-02T07:37:50.272Z,400.0000
2023-05-02T07:38:51.390Z,400.0000
2023-05-02T07:39:52.485Z,400.0000
2023-05-02T07:40:53.544Z,400.0000
2023-05-02T07:41:54.677Z,400.0000
2023-05-02T07:42:55.733Z,400.0000
2023-05-02T07:43:56.830Z,400.0000
2023-05-02T07:44:57.919Z,400.0000
2023-05-02T07:45:59.040Z,400.0000
2023-05-02T07:47:00.119Z,400.0000
2023-05-02T07:48:01.193Z,400.0000
2023-05-02T07:49:02.275Z,400.0000
2023-05-02T07:50:03.611Z,400.0000
2023-05-02T07:51:04.478Z,400.0000
2023-05-02T07:52:05.549Z,400.0000
2023-05-02T07:53:06.647Z,400.0000
2023-05-02T07:54:07.736Z,400.0000
2023-05-02T07:55:08.818Z,400.0000
2023-05-02T07:56:09.913Z,400.0000
2023-05-02T07:57:11.002Z,400.0000
2023-05-02T07:58:12.130Z,400.0000
2023-05-02T07:59:13.191Z,400.0000
2023-05-02T08:00:14.282Z,400.0000
2023-05-02T08:01:15.397Z,400.0000
2023-05-02T08:02:16.576Z,400.0000
2023-05-02T08:03:17.651Z,400.0000
2023-05-02T08:04:18.831Z,400.0000
2023-05-02T08:05:19.777Z,400.0000
2023-05-02T08:06:20.832Z,400.0000
2023-05-02T08:07:21.930Z,400.0000
2023-05-02T08:08:23.023Z,400.0000
2023-05-02T08:09:24.121Z,400.0000
2023-05-02T08:10:25.198Z,400.0000
2023-05-02T08:11:26.275Z,400.0000
2023-05-02T08:12:27.387Z,400.0000
2023-05-02T08:13:28.461Z,400.0000
2023-05-02T08:14:30.062Z,400.0000
2023-05-02T08:15:30.655Z,400.0000
2023-05-02T08:16:32.005Z,400.0000
2023-05-02T08:17:32.871Z,400.0000
2023-05-02T08:18:33.922Z,400.0000
2023-05-02T08:19:35.126Z,400.0000
2023-05-02T08:20:36.109Z,409.5385
2023-05-02T08:21:37.196Z,503.3077
2023-05-02T08:22:38.281Z,547.0769
2023-05-02T08:23:39.362Z,503.8462
2023-05-02T08:24:40.576Z,580.0769
2023-05-02T08:25:41.564Z,657.0000
2023-05-02T08:26:42.651Z,720.8461
2023-05-02T08:27:43.771Z,769.9231
2023-05-02T08:28:44.829Z,665.0769
2023-05-02T08:29:45.929Z,424.1538
2023-05-02T08:30:47.065Z,400.0000
2023-05-02T08:31:48.174Z,424.9231
2023-05-02T08:32:49.270Z,531.6923
2023-05-02T08:33:50.303Z,623.3077
2023-05-02T08:34:51.448Z,699.2308
2023-05-02T08:35:52.529Z,609.3077
2023-05-02T08:36:54.430Z,411.6923
2023-05-02T08:37:54.789Z,428.2308
2023-05-02T08:38:55.824Z,532.1539
2023-05-02T08:39:56.906Z,622.3846
2023-05-02T08:40:57.999Z,698.3077
2023-05-02T08:41:59.082Z,711.0769
2023-05-02T08:43:00.170Z,481.0769
2023-05-02T08:44:01.254Z,400.0000
2023-05-02T08:45:02.356Z,441.0769
2023-05-02T08:46:03.435Z,550.6154
2023-05-02T08:47:04.556Z,643.4615
2023-05-02T08:48:05.667Z,711.3846
2023-05-02T08:49:06.808Z,644.0000
2023-05-02T08:50:07.818Z,417.5385
2023-05-02T08:51:08.907Z,405.0769
2023-05-02T08:52:09.991Z,489.6154
2023-05-02T08:53:11.115Z,593.0769
2023-05-02T08:54:12.218Z,681.6923
2023-05-02T08:55:13.259Z,731.9231
2023-05-02T08:56:14.359Z,552.0769
2023-05-02T08:57:15.442Z,436.9231
2023-05-02T08:58:17.729Z,526.1539
2023-05-02T08:59:17.686Z,620.1539
2023-05-02T09:00:18.712Z,697.2308
2023-05-02T09:01:19.844Z,749.8461
2023-05-02T09:02:21.046Z,646.6923
2023-05-02T09:03:23.363Z,419.3846
2023-05-02T09:04:23.139Z,426.0769
2023-05-02T09:05:24.161Z,527.5385
2023-05-02T09:06:25.329Z,627.3846
2023-05-02T09:07:26.376Z,703.0000
2023-05-02T09:08:27.492Z,730.4615
2023-05-02T09:09:28.544Z,521.0000
2023-05-02T09:10:29.623Z,407.0000
2023-05-02T09:11:30.703Z,493.2308
2023-05-02T09:12:31.813Z,598.0000
2023-05-02T09:13:32.922Z,678.6154
2023-05-02T09:14:34.008Z,746.3846
2023-05-02T09:15:35.079Z,643.2308
2023-05-02T09:16:36.199Z,418.5385
2023-05-02T09:17:37.295Z,418.5385
2023-05-02T09:18:38.406Z,521.8461
2023-05-02T09:19:39.460Z,624.9231
2023-05-02T09:20:40.566Z,698.7692
2023-05-02T09:21:41.662Z,732.5385
2023-05-02T09:22:42.738Z,516.1539
2023-05-02T09:23:43.833Z,400.3077
2023-05-02T09:24:44.935Z,476.1538
2023-05-02T09:25:46.000Z,585.3077
2023-05-02T09:26:47.093Z,671.0769
2023-05-02T09:27:48.193Z,740.6154
2023-05-02T09:28:49.279Z,657.7692
2023-05-02T09:29:50.366Z,424.4615
2023-05-02T09:30:51.511Z,421.5385
2023-05-02T09:31:56.296Z,526.4615
2023-05-02T09:32:53.664Z,625.2308
2023-05-02T09:33:54.746Z,707.8461
2023-05-02T09:34:55.868Z,744.8461
2023-05-02T09:35:56.930Z,491.2308
2023-05-02T09:36:58.022Z,400.0000
2023-05-02T09:37:59.111Z,407.5385
2023-05-02T09:39:00.208Z,509.9231
2023-05-02T09:40:01.295Z,611.4615
2023-05-02T09:41:02.385Z,692.0769
2023-05-02T09:42:03.534Z,681.6923
2023-05-02T09:43:04.559Z,448.1538
2023-05-02T09:44:05.647Z,434.3077
2023-05-02T09:45:06.732Z,542.2308
2023-05-02T09:46:07.868Z,640.5385
2023-05-02T09:47:08.945Z,712.0000
2023-05-02T09:48:10.106Z,747.8461
2023-05-02T09:49:11.147Z,537.8461
2023-05-02T09:50:12.195Z,400.0000
2023-05-02T09:51:13.282Z,408.8462
2023-05-02T09:52:14.392Z,500.6923
2023-05-02T09:53:15.476Z,607.7692
2023-05-02T09:54:16.560Z,687.3077
2023-05-02T09:55:17.649Z,699.6923
2023-05-02T09:56:18.743Z,475.1538
2023-05-02T09:57:19.844Z,415.7692
2023-05-02T09:58:20.925Z,513.3846
2023-05-02T09:59:22.029Z,614.7692
2023-05-02T10:00:23.111Z,695.6154
2023-05-02T10:01:24.226Z,750.6923
2023-05-02T10:02:25.328Z,598.7692
2023-05-02T10:03:26.376Z,404.5385
2023-05-02T10:04:27.517Z,421.4615
2023-05-02T10:05:28.542Z,530.0769
2023-05-02T10:06:29.677Z,633.3846
2023-05-02T10:07:30.725Z,712.3846
2023-05-02T10:08:31.811Z,722.5385
2023-05-02T10:09:33.018Z,494.5385
2023-05-02T10:10:34.002Z,439.6154
2023-05-02T10:11:35.103Z,540.7692
2023-05-02T10:12:36.195Z,646.4615
2023-05-02T10:13:37.282Z,714.2308
2023-05-02T10:14:38.448Z,768.4615
2023-05-02T10:15:39.493Z,600.8461
2023-05-02T10:16:40.542Z,441.7692
2023-05-02T10:17:41.658Z,522.8461
2023-05-02T10:18:42.721Z,618.9231
2023-05-02T10:19:43.830Z,700.8461
2023-05-02T10:20:44.895Z,767.4615
2023-05-02T10:21:45.998Z,690.1539
2023-05-02T10:22:47.082Z,500.9231
2023-05-02T10:23:48.157Z,553.6923
2023-05-02T10:24:49.294Z,643.0769
2023-05-02T10:25:50.342Z,723.0769
2023-05-02T10:26:51.443Z,788.4615
2023-05-02T10:27:52.514Z,737.6923
2023-05-02T10:28:53.596Z,475.1538
2023-05-02T10:29:54.703Z,426.6154
2023-05-02T10:30:55.771Z,535.3077
2023-05-02T10:31:56.974Z,638.8461
2023-05-02T10:32:58.089Z,717.9231
2023-05-02T10:33:59.049Z,772.6923
2023-05-02T10:35:00.302Z,596.0000
2023-05-02T10:36:01.216Z,405.3077
2023-05-02T10:37:02.352Z,443.0000
2023-05-02T10:38:03.404Z,559.5385
2023-05-02T10:39:04.502Z,657.0000
2023-05-02T10:40:05.590Z,732.6154
2023-05-02T10:41:06.671Z,731.1539
2023-05-02T10:42:07.761Z,498.0769
2023-05-02T10:43:08.864Z,486.0769
2023-05-02T10:44:09.924Z,593.3077
2023-05-02T10:45:11.044Z,678.6154
2023-05-02T10:46:12.146Z,754.3846
2023-05-02T10:47:13.199Z,782.3846
2023-05-02T10:48:14.295Z,557.3846
2023-05-02T10:49:15.415Z,400.0000
2023-05-02T10:50:16.488Z,431.6154
2023-05-02T10:51:17.570Z,552.3846
2023-05-02T10:52:18.648Z,652.5385
2023-05-02T10:53:19.744Z,733.6154
2023-05-02T10:54:20.833Z,723.5385
2023-05-02T10:55:21.969Z,472.0769
2023-05-02T10:56:23.005Z,429.0769
2023-05-02T10:57:24.117Z,538.8461
2023-05-02T10:58:25.206Z,643.1539
2023-05-02T10:59:26.295Z,726.6154
2023-05-02T11:00:27.430Z,778.0000
2023-05-02T11:01:28.846Z,595.7692
2023-05-02T11:02:29.601Z,420.0769
2023-05-02T11:03:30.679Z,503.6154
2023-05-02T11:04:31.740Z,610.7692
2023-05-02T11:05:32.844Z,699.0769
2023-05-02T11:06:33.973Z,768.5385
2023-05-02T11:07:35.035Z,718.5385
2023-05-02T11:08:36.126Z,474.3846
2023-05-02T11:09:37.209Z,478.0000
2023-05-02T11:10:38.323Z,586.9231
2023-05-02T11:11:39.396Z,680.8461
2023-05-02T11:12:40.483Z,753.9231
2023-05-02T11:13:41.577Z,779.0000
2023-05-02T11:14:42.673Z,554.6923
2023-05-02T11:15:43.813Z,409.4615
2023-05-02T11:16:44.881Z,500.1538
2023-05-02T11:17:45.963Z,616.0000
2023-05-02T11:18:47.043Z,702.4615
2023-05-02T11:19:48.147Z,774.4615
2023-05-02T11:20:49.217Z,698.0769
2023-05-02T11:21:50.288Z,441.2308
2023-05-02T11:22:51.372Z,436.3077
2023-05-02T11:23:52.456Z,551.7692
2023-05-02T11:24:53.576Z,650.6923
2023-05-02T11:25:54.703Z,736.6923
2023-05-02T11:26:55.741Z,775.6154
2023-05-02T11:27:56.837Z,577.4615
2023-05-02T11:28:57.942Z,457.1538
2023-05-02T11:29:58.991Z,552.3846
2023-05-02T11:31:00.148Z,646.6154
2023-05-02T11:32:01.232Z,733.2308
2023-05-02T11:33:02.313Z,789.8461
2023-05-02T11:34:03.396Z,673.9231
2023-05-02T11:35:04.457Z,428.9231
2023-05-02T11:36:05.560Z,439.3077
2023-05-02T11:37:06.638Z,554.7692
2023-05-02T11:38:07.722Z,664.4615
2023-05-02T11:39:08.829Z,740.2308
2023-05-02T11:40:09.919Z,776.3846
2023-05-02T11:41:11.035Z,554.2308
2023-05-02T11:42:12.090Z,416.7692
2023-05-02T11:43:13.220Z,514.2308
2023-05-02T11:44:14.259Z,629.3077
2023-05-02T11:45:15.405Z,715.7692
2023-05-02T11:46:16.466Z,782.8461
2023-05-02T11:47:17.671Z,695.0769
2023-05-02T11:48:18.615Z,456.2308
2023-05-02T11:49:19.730Z,486.9231
2023-05-02T11:50:20.852Z,603.0000
2023-05-02T11:51:21.906Z,700.6154
2023-05-02T11:52:22.997Z,767.6154
2023-05-02T11:53:24.117Z,788.2308
2023-05-02T11:54:25.198Z,538.8461
2023-05-02T11:55:26.244Z,436.6154
2023-05-02T11:56:27.359Z,533.6154
2023-05-02T11:57:28.440Z,646.6923